createdAt,value
2023-05-13T00:00:07.463Z,24.17
2023-05-13T00:02:35.931Z,21.85
2023-05-13T00:05:03.300Z,18.85
2023-05-13T00:07:30.791Z,22.38
2023-05-13T00:09:58.007Z,17.73
2023-05-13T00:12:25.237Z,20.03
2023-05-13T00:14:52.634Z,17.58
2023-05-13T00:17:19.873Z,16.23
2023-05-13T00:19:47.128Z,20.63
2023-05-13T00:22:14.701Z,19.42
2023-05-13T00:24:42.001Z,16.40
2023-05-13T00:27:10.233Z,17.63
2023-05-13T00:29:37.543Z,16.73
2023-05-13T00:32:05.266Z,19.48
2023-05-13T00:34:32.656Z,16.70
2023-05-13T00:37:01.118Z,26.03
2023-05-13T00:39:30.042Z,16.02
2023-05-13T00:41:57.551Z,15.77
2023-05-13T00:44:24.915Z,17.95
2023-05-13T00:46:52.121Z,19.02
2023-05-13T00:49:19.432Z,18.83
2023-05-13T00:51:46.744Z,19.85
2023-05-13T00:54:14.038Z,20.63
2023-05-13T00:56:41.275Z,16.63
2023-05-13T00:59:08.572Z,19.45
2023-05-13T01:01:46.774Z,18.27
2023-05-13T01:04:26.241Z,20.63
2023-05-13T01:07:05.495Z,19.27
2023-05-13T01:09:57.327Z,18.92
2023-05-13T01:12:29.997Z,18.55
2023-05-13T01:15:11.481Z,17.53
2023-05-13T01:17:51.001Z,17.15
2023-05-13T01:20:21.471Z,15.65
2023-05-13T01:22:48.946Z,17.10
2023-05-13T01:25:17.083Z,17.02
2023-05-13T01:27:44.564Z,19.23
2023-05-13T01:30:13.390Z,19.92
2023-05-13T01:32:40.781Z,18.08
2023-05-13T01:35:09.360Z,18.73
2023-05-13T01:37:40.220Z,17.27
2023-05-13T01:40:20.338Z,18.00
2023-05-13T01:42:55.547Z,18.77
2023-05-13T01:45:22.826Z,17.55
2023-05-13T01:47:50.437Z,16.98
2023-05-13T01:50:17.839Z,18.85
2023-05-13T01:52:45.130Z,17.90
2023-05-13T01:55:12.512Z,17.27
2023-05-13T01:57:40.557Z,16.70
2023-05-13T02:00:09.083Z,16.42
2023-05-13T02:02:41.935Z,20.92
2023-05-13T02:05:09.521Z,16.23
2023-05-13T02:07:37.513Z,17.55
2023-05-13T02:10:05.445Z,18.00
2023-05-13T02:12:33.394Z,18.83
2023-05-13T02:15:01.151Z,16.70
2023-05-13T02:17:31.117Z,18.33
2023-05-13T02:19:58.481Z,18.25
2023-05-13T02:22:25.742Z,17.95
2023-05-13T02:24:53.410Z,17.85
2023-05-13T02:27:20.954Z,17.80
2023-05-13T02:29:48.308Z,18.13
2023-05-13T02:32:16.242Z,17.75
2023-05-13T02:34:43.673Z,16.63
2023-05-13T02:37:10.894Z,16.30
2023-05-13T02:39:46.194Z,16.60
2023-05-13T02:42:13.539Z,18.33
2023-05-13T02:44:41.407Z,18.20
2023-05-13T02:47:10.508Z,20.33
2023-05-13T02:49:37.932Z,17.67
2023-05-13T02:52:06.970Z,16.90
2023-05-13T02:54:36.305Z,19.63
2023-05-13T02:57:03.718Z,20.10
2023-05-13T02:59:31.069Z,20.58
2023-05-13T03:01:58.327Z,21.63
2023-05-13T03:04:25.580Z,21.75
2023-05-13T03:06:53.151Z,21.20
2023-05-13T03:09:20.508Z,20.80
2023-05-13T03:11:47.769Z,20.05
2023-05-13T03:14:14.994Z,19.85
2023-05-13T03:16:42.454Z,19.75
2023-05-13T03:19:09.825Z,18.63
2023-05-13T03:21:37.253Z,19.30
2023-05-13T03:24:05.819Z,16.70
2023-05-13T03:26:33.104Z,18.17
2023-05-13T03:29:01.974Z,21.25
2023-05-13T03:31:29.654Z,18.83
2023-05-13T03:33:57.640Z,26.75
2023-05-13T03:36:24.974Z,22.83
2023-05-13T03:38:52.210Z,21.70
2023-05-13T03:41:19.599Z,17.48
2023-05-13T03:43:47.654Z,21.13
2023-05-13T03:46:16.408Z,16.33
2023-05-13T03:48:44.286Z,15.98
2023-05-13T03:51:11.652Z,17.05
2023-05-13T03:53:39.721Z,15.77
2023-05-13T03:56:07.135Z,16.57
2023-05-13T03:58:34.452Z,15.55
2023-05-13T04:01:01.833Z,16.27
2023-05-13T04:03:29.208Z,15.75
2023-05-13T04:05:56.616Z,14.85
2023-05-13T04:08:23.816Z,14.90
2023-05-13T04:10:51.108Z,16.02
2023-05-13T04:13:19.220Z,14.48
2023-05-13T04:15:46.524Z,16.52
2023-05-13T04:18:13.740Z,16.55
2023-05-13T04:20:41.121Z,16.07
2023-05-13T04:23:08.439Z,15.57
2023-05-13T04:25:36.413Z,15.48
2023-05-13T04:28:03.920Z,14.18
2023-05-13T04:30:36.169Z,15.15
2023-05-13T04:33:03.957Z,15.17
2023-05-13T04:35:32.307Z,15.65
2023-05-13T04:38:01.962Z,14.02
2023-05-13T04:40:30.104Z,14.52
2023-05-13T04:43:01.347Z,16.50
2023-05-13T04:45:33.195Z,15.30
2023-05-13T04:48:01.579Z,16.27
2023-05-13T04:50:29.032Z,16.10
2023-05-13T04:52:56.858Z,14.63
2023-05-13T04:55:26.004Z,20.52
2023-05-13T04:57:55.409Z,16.37
2023-05-13T05:00:24.266Z,16.65
2023-05-13T05:02:52.378Z,14.63
2023-05-13T05:05:20.223Z,15.65
2023-05-13T05:07:47.559Z,17.02
2023-05-13T05:10:15.717Z,17.07
2023-05-13T05:12:48.671Z,16.08
2023-05-13T05:15:16.212Z,19.70
2023-05-13T05:17:46.275Z,16.50
2023-05-13T05:20:13.697Z,15.85
2023-05-13T05:22:42.271Z,17.33
2023-05-13T05:25:11.822Z,15.20
2023-05-13T05:27:39.393Z,19.80
2023-05-13T05:30:09.118Z,17.20
2023-05-13T05:32:37.063Z,17.27
2023-05-13T05:35:06.111Z,17.70
2023-05-13T05:37:33.959Z,17.25
2023-05-13T05:40:01.304Z,19.60
2023-05-13T05:42:29.026Z,15.90
2023-05-13T05:44:56.386Z,19.30
2023-05-13T05:47:23.948Z,18.00
2023-05-13T05:49:51.291Z,22.17
2023-05-13T05:52:19.301Z,19.75
2023-05-13T05:54:46.674Z,26.08
2023-05-13T05:57:14.546Z,25.58
2023-05-13T05:59:41.837Z,23.77
2023-05-13T06:02:09.246Z,22.58
2023-05-13T06:04:36.927Z,29.38
2023-05-13T06:07:04.267Z,23.58
2023-05-13T06:09:31.549Z,27.08
2023-05-13T06:11:58.989Z,26.30
2023-05-13T06:14:26.299Z,22.98
2023-05-13T06:16:55.726Z,22.77
2023-05-13T06:19:23.260Z,26.23
2023-05-13T06:21:50.568Z,28.27
2023-05-13T06:24:17.878Z,22.37
2023-05-13T06:26:45.594Z,22.35
2023-05-13T06:29:14.698Z,23.70
2023-05-13T06:31:41.995Z,26.70
2023-05-13T06:34:16.392Z,23.30
2023-05-13T06:36:44.253Z,24.57
2023-05-13T06:39:12.004Z,25.45
2023-05-13T06:41:40.344Z,26.75
2023-05-13T06:44:12.106Z,21.40
2023-05-13T06:46:40.749Z,24.75
2023-05-13T06:49:07.994Z,24.97
2023-05-13T06:51:35.763Z,26.00
2023-05-13T06:54:03.095Z,24.95
2023-05-13T06:56:30.450Z,22.52
2023-05-13T06:58:57.672Z,24.40
2023-05-13T07:01:25.109Z,25.07
2023-05-13T07:03:52.378Z,26.23
2023-05-13T07:06:19.667Z,30.15
2023-05-13T07:08:46.902Z,27.25
2023-05-13T07:11:14.159Z,27.42
2023-05-13T07:13:41.393Z,25.83
2023-05-13T07:16:08.715Z,25.55
2023-05-13T07:18:36.000Z,24.13
2023-05-13T07:21:03.397Z,25.25
2023-05-13T07:23:31.634Z,24.25
2023-05-13T07:25:58.883Z,22.67
2023-05-13T07:28:26.083Z,23.08
2023-05-13T07:30:53.705Z,24.38
2023-05-13T07:33:20.954Z,25.08
2023-05-13T07:35:48.224Z,29.60
2023-05-13T07:38:15.885Z,24.27
2023-05-13T07:40:43.232Z,25.30
2023-05-13T07:43:10.459Z,26.05
2023-05-13T07:45:39.326Z,24.10
2023-05-13T07:48:06.682Z,24.10
2023-05-13T07:50:34.334Z,26.10
2023-05-13T07:53:02.936Z,28.70
2023-05-13T07:55:30.448Z,26.42
2023-05-13T07:57:57.684Z,22.70
2023-05-13T08:00:24.964Z,29.05
2023-05-13T08:02:52.463Z,26.30
2023-05-13T08:05:20.028Z,23.75
2023-05-13T08:07:47.448Z,22.08
2023-05-13T08:10:14.780Z,23.88
2023-05-13T08:12:41.999Z,21.73
2023-05-13T08:15:12.044Z,24.03
2023-05-13T08:17:39.412Z,21.45
2023-05-13T08:20:07.291Z,23.73
2023-05-13T08:22:34.596Z,24.13
2023-05-13T08:25:01.843Z,21.80
2023-05-13T08:27:29.317Z,25.10
2023-05-13T08:29:56.545Z,22.88
2023-05-13T08:32:23.821Z,22.80
2023-05-13T08:34:51.045Z,23.00
2023-05-13T08:37:18.369Z,24.63
2023-05-13T08:39:45.908Z,25.50
2023-05-13T08:42:15.181Z,29.55
2023-05-13T08:44:42.492Z,28.10
2023-05-13T08:47:24.966Z,25.08
2023-05-13T08:49:52.273Z,22.40
2023-05-13T08:52:19.562Z,21.10
2023-05-13T08:54:46.845Z,21.35
2023-05-13T08:57:14.058Z,21.10
2023-05-13T08:59:41.368Z,22.67
2023-05-13T09:02:08.895Z,21.20
2023-05-13T09:04:37.830Z,20.80
2023-05-13T09:07:05.708Z,21.08
2023-05-13T09:09:33.177Z,20.02
2023-05-13T09:12:00.379Z,18.95
2023-05-13T09:14:31.175Z,20.60
2023-05-13T09:16:58.775Z,21.17
2023-05-13T09:19:26.248Z,22.65
2023-05-13T09:21:54.044Z,23.33
2023-05-13T09:24:24.000Z,23.08
2023-05-13T09:26:51.744Z,21.35
2023-05-13T09:29:26.604Z,24.03
2023-05-13T09:31:58.185Z,24.90
2023-05-13T09:34:29.980Z,24.90
2023-05-13T09:37:05.047Z,23.95
2023-05-13T09:39:39.891Z,23.25
2023-05-13T09:42:15.559Z,21.83
2023-05-13T09:44:43.389Z,23.15
2023-05-13T09:47:14.351Z,23.50
2023-05-13T09:49:44.631Z,25.50
2023-05-13T09:52:12.067Z,22.02
2023-05-13T09:54:39.329Z,22.23
2023-05-13T09:57:06.742Z,21.35
2023-05-13T09:59:34.546Z,23.23
2023-05-13T10:02:04.925Z,22.35
2023-05-13T10:04:32.445Z,25.08
2023-05-13T10:06:59.645Z,21.33
2023-05-13T10:09:27.705Z,21.65
2023-05-13T10:11:54.999Z,20.50
2023-05-13T10:14:22.413Z,25.05
2023-05-13T10:16:49.702Z,25.08
2023-05-13T10:19:17.583Z,27.73
2023-05-13T10:21:44.920Z,26.17
2023-05-13T10:24:12.217Z,28.20
2023-05-13T10:26:39.506Z,24.95
2023-05-13T10:29:06.788Z,25.45
2023-05-13T10:31:34.335Z,25.77
2023-05-13T10:34:01.702Z,25.13
2023-05-13T10:36:31.862Z,23.40
2023-05-13T10:39:05.853Z,19.88
2023-05-13T10:42:03.042Z,24.25
2023-05-13T10:44:30.344Z,27.83
2023-05-13T10:46:57.580Z,29.05
2023-05-13T10:49:32.448Z,27.70
2023-05-13T10:52:06.370Z,28.33
2023-05-13T10:54:38.712Z,29.23
2023-05-13T10:57:06.464Z,25.57
2023-05-13T10:59:35.872Z,28.10
2023-05-13T11:02:04.046Z,26.35
2023-05-13T11:04:31.390Z,25.75
2023-05-13T11:06:58.927Z,24.27
2023-05-13T11:09:26.409Z,25.33
2023-05-13T11:11:54.588Z,23.52
2023-05-13T11:14:25.649Z,23.17
2023-05-13T11:17:02.194Z,23.80
2023-05-13T11:19:35.194Z,25.73
2023-05-13T11:22:10.221Z,24.50
2023-05-13T11:24:37.565Z,26.52
2023-05-13T11:27:17.397Z,24.38
2023-05-13T11:29:52.311Z,25.23
2023-05-13T11:32:50.816Z,25.45
2023-05-13T11:35:27.260Z,25.90
2023-05-13T11:37:59.985Z,25.08
2023-05-13T11:40:27.714Z,29.83
2023-05-13T11:42:54.973Z,31.77
2023-05-13T11:45:24.365Z,31.20
2023-05-13T11:47:53.030Z,29.50
2023-05-13T11:50:27.402Z,28.98
2023-05-13T11:52:56.197Z,31.30
2023-05-13T11:55:30.141Z,27.15
2023-05-13T11:57:58.097Z,32.20
2023-05-13T12:00:27.088Z,25.60
2023-05-13T12:02:54.661Z,25.92
2023-05-13T12:05:22.372Z,26.90
2023-05-13T12:07:50.008Z,25.92
2023-05-13T12:10:17.205Z,25.15
2023-05-13T12:12:45.627Z,26.20
2023-05-13T12:15:17.186Z,24.70
2023-05-13T12:17:44.772Z,34.78
2023-05-13T12:20:15.702Z,27.42
2023-05-13T12:22:43.060Z,28.88
2023-05-13T12:25:35.643Z,27.47
2023-05-13T12:28:13.357Z,25.48
2023-05-13T12:30:42.117Z,24.88
2023-05-13T12:33:13.659Z,24.17
2023-05-13T12:35:41.116Z,23.17
2023-05-13T12:38:08.287Z,25.93
2023-05-13T12:40:35.606Z,26.33
2023-05-13T12:43:03.353Z,25.58
2023-05-13T12:45:31.843Z,21.77
2023-05-13T12:47:59.742Z,21.50
2023-05-13T12:50:27.114Z,24.90
2023-05-13T12:52:54.454Z,34.30
2023-05-13T12:55:22.055Z,25.58
2023-05-13T12:58:05.190Z,21.55
2023-05-13T13:00:32.491Z,21.60
2023-05-13T13:02:59.901Z,19.67
2023-05-13T13:05:27.387Z,22.17
2023-05-13T13:07:54.621Z,20.65
2023-05-13T13:10:22.022Z,20.48
2023-05-13T13:12:50.232Z,22.23
2023-05-13T13:15:17.659Z,28.93
2023-05-13T13:17:44.987Z,22.60
2023-05-13T13:20:12.595Z,19.73
2023-05-13T13:22:39.999Z,22.67
2023-05-13T13:25:07.679Z,21.10
2023-05-13T13:27:35.155Z,22.13
2023-05-13T13:30:02.630Z,20.02
2023-05-13T13:32:29.953Z,22.85
2023-05-13T13:34:58.645Z,21.52
2023-05-13T13:37:25.867Z,21.17
2023-05-13T13:39:53.237Z,22.33
2023-05-13T13:42:21.396Z,24.80
2023-05-13T13:44:49.625Z,21.17
2023-05-13T13:47:16.931Z,20.40
2023-05-13T13:49:44.280Z,22.95
2023-05-13T13:52:11.543Z,22.87
2023-05-13T13:54:38.939Z,21.00
2023-05-13T13:57:06.377Z,21.00
2023-05-13T13:59:33.643Z,20.50
2023-05-13T14:02:01.065Z,19.77
2023-05-13T14:04:30.269Z,20.50
2023-05-13T14:06:57.774Z,21.83
2023-05-13T14:09:25.256Z,22.33
2023-05-13T14:11:52.614Z,18.75
2023-05-13T14:14:19.944Z,20.13
2023-05-13T14:16:47.194Z,21.87
2023-05-13T14:19:14.531Z,20.42
2023-05-13T14:21:41.773Z,21.20
2023-05-13T14:24:09.091Z,19.58
2023-05-13T14:26:36.374Z,17.17
2023-05-13T14:29:03.663Z,21.20
2023-05-13T14:31:30.974Z,20.52
2023-05-13T14:33:58.658Z,20.20
2023-05-13T14:36:26.755Z,20.20
2023-05-13T14:38:54.462Z,25.10
2023-05-13T14:41:22.764Z,22.90
2023-05-13T14:43:50.030Z,22.75
2023-05-13T14:46:17.410Z,19.45
2023-05-13T14:48:44.761Z,23.60
2023-05-13T14:51:12.639Z,24.60
2023-05-13T14:53:39.977Z,21.47
2023-05-13T14:56:07.509Z,22.60
2023-05-13T14:58:35.029Z,18.42
2023-05-13T15:01:02.368Z,19.08
2023-05-13T15:03:29.796Z,20.50
2023-05-13T15:05:57.312Z,19.87
2023-05-13T15:08:25.375Z,22.75
2023-05-13T15:10:52.685Z,21.05
2023-05-13T15:13:20.050Z,22.33
2023-05-13T15:15:47.289Z,20.73
2023-05-13T15:18:14.696Z,21.43
2023-05-13T15:20:42.001Z,22.42
2023-05-13T15:23:09.233Z,20.67
2023-05-13T15:25:36.606Z,19.33
2023-05-13T15:28:04.000Z,22.45
2023-05-13T15:30:31.418Z,20.97
2023-05-13T15:32:58.828Z,22.05
2023-05-13T15:35:26.129Z,19.42
2023-05-13T15:37:53.378Z,21.08
2023-05-13T15:40:20.924Z,22.75
2023-05-13T15:42:48.413Z,20.00
2023-05-13T15:45:15.781Z,22.70
2023-05-13T15:47:43.284Z,21.50
2023-05-13T15:50:11.008Z,23.85
2023-05-13T15:52:38.529Z,20.60
2023-05-13T15:55:06.467Z,22.03
2023-05-13T15:57:33.972Z,22.27
2023-05-13T16:00:01.353Z,22.92
2023-05-13T16:02:36.152Z,20.70
2023-05-13T16:05:03.676Z,23.52
2023-05-13T16:07:30.920Z,21.87
2023-05-13T16:09:58.220Z,25.25
2023-05-13T16:12:25.512Z,22.08
2023-05-13T16:14:52.811Z,21.98
2023-05-13T16:17:20.135Z,23.52
2023-05-13T16:19:47.468Z,28.77
2023-05-13T16:22:29.052Z,25.27
2023-05-13T16:25:01.442Z,25.05
2023-05-13T16:27:29.206Z,23.45
2023-05-13T16:29:57.578Z,25.05
2023-05-13T16:32:25.066Z,24.83
2023-05-13T16:34:52.540Z,24.38
2023-05-13T16:37:19.846Z,30.83
2023-05-13T16:39:47.152Z,28.08
2023-05-13T16:42:14.396Z,27.05
2023-05-13T16:44:41.780Z,27.70
2023-05-13T16:47:09.271Z,25.58
2023-05-13T16:49:36.827Z,25.52
2023-05-13T16:52:04.932Z,25.05
2023-05-13T16:54:32.171Z,29.45
2023-05-13T16:56:59.674Z,28.03
2023-05-13T16:59:27.390Z,25.33
2023-05-13T17:01:54.916Z,25.85
2023-05-13T17:04:22.188Z,30.23
2023-05-13T17:06:49.466Z,27.10
2023-05-13T17:09:16.796Z,23.03
2023-05-13T17:11:44.078Z,25.30
2023-05-13T17:14:11.305Z,26.73
2023-05-13T17:16:38.818Z,27.38
2023-05-13T17:19:06.234Z,26.50
2023-05-13T17:21:33.586Z,27.23
2023-05-13T17:24:00.863Z,29.92
2023-05-13T17:26:28.188Z,26.45
2023-05-13T17:28:55.451Z,26.95
2023-05-13T17:31:23.538Z,26.55
2023-05-13T17:33:50.866Z,26.43
2023-05-13T17:36:18.226Z,28.55
2023-05-13T17:38:45.623Z,25.40
2023-05-13T17:41:12.946Z,24.25
2023-05-13T17:43:40.282Z,27.02
2023-05-13T17:46:07.760Z,26.23
2023-05-13T17:48:36.192Z,28.00
2023-05-13T17:51:03.789Z,27.27
2023-05-13T17:53:32.916Z,24.77
2023-05-13T17:56:02.057Z,24.35
2023-05-13T17:58:29.390Z,28.27
2023-05-13T18:00:56.844Z,26.38
2023-05-13T18:03:24.131Z,24.98
2023-05-13T18:05:51.808Z,28.50
2023-05-13T18:08:19.172Z,28.02
2023-05-13T18:10:47.829Z,29.07
2023-05-13T18:13:15.493Z,27.55
2023-05-13T18:15:42.842Z,28.70
2023-05-13T18:18:10.297Z,27.08
2023-05-13T18:20:40.219Z,27.05
2023-05-13T18:23:07.563Z,24.97
2023-05-13T18:25:38.023Z,25.70
2023-05-13T18:28:12.688Z,31.35
2023-05-13T18:30:40.032Z,30.83
2023-05-13T18:33:07.396Z,26.73
2023-05-13T18:35:34.642Z,32.03
2023-05-13T18:38:02.007Z,30.08
2023-05-13T18:40:29.249Z,27.23
2023-05-13T18:42:56.510Z,27.58
2023-05-13T18:45:23.805Z,27.50
2023-05-13T18:47:51.236Z,23.00
2023-05-13T18:50:18.781Z,27.83
2023-05-13T18:52:46.345Z,27.77
2023-05-13T18:55:13.572Z,26.20
2023-05-13T18:57:40.904Z,25.98
2023-05-13T19:00:08.579Z,24.33
2023-05-13T19:02:36.288Z,25.60
2023-05-13T19:05:03.864Z,24.88
2023-05-13T19:07:31.297Z,25.45
2023-05-13T19:09:58.536Z,24.38
2023-05-13T19:12:26.402Z,23.10
2023-05-13T19:14:53.674Z,23.75
2023-05-13T19:17:21.189Z,27.75
2023-05-13T19:19:48.393Z,25.30
2023-05-13T19:22:15.984Z,26.23
2023-05-13T19:24:43.293Z,24.80
2023-05-13T19:27:11.456Z,22.30
2023-05-13T19:29:38.923Z,22.42
2023-05-13T19:32:06.414Z,21.88
2023-05-13T19:34:33.689Z,22.45
2023-05-13T19:37:00.987Z,22.47
2023-05-13T19:39:28.545Z,23.23
2023-05-13T19:41:55.870Z,23.83
2023-05-13T19:44:23.984Z,23.60
2023-05-13T19:46:51.500Z,23.98
2023-05-13T19:49:18.806Z,24.57
2023-05-13T19:51:46.086Z,23.67
2023-05-13T19:54:14.061Z,26.02
2023-05-13T19:56:41.545Z,24.88
2023-05-13T19:59:08.800Z,22.20
2023-05-13T20:01:37.740Z,23.27
2023-05-13T20:04:05.150Z,24.92
2023-05-13T20:06:32.722Z,25.02
2023-05-13T20:09:01.942Z,24.92
2023-05-13T20:11:29.344Z,22.65
2023-05-13T20:13:58.307Z,24.17
2023-05-13T20:16:25.709Z,24.52
2023-05-13T20:18:53.042Z,23.27
2023-05-13T20:21:20.506Z,24.33
2023-05-13T20:23:47.736Z,25.65
2023-05-13T20:26:15.248Z,29.43
2023-05-13T20:28:42.518Z,24.42
2023-05-13T20:31:09.817Z,22.42
2023-05-13T20:33:37.094Z,21.20
2023-05-13T20:36:06.483Z,22.60
2023-05-13T20:38:33.842Z,19.17
2023-05-13T20:41:01.143Z,23.30
2023-05-13T20:43:28.355Z,25.15
2023-05-13T20:45:55.667Z,22.67
2023-05-13T20:48:22.904Z,29.40
2023-05-13T20:50:50.366Z,22.40
2023-05-13T20:53:17.551Z,26.88
2023-05-13T20:55:44.800Z,24.70
2023-05-13T20:58:12.193Z,22.00
2023-05-13T21:00:39.491Z,21.95
2023-05-13T21:03:06.913Z,21.17
2023-05-13T21:05:34.301Z,19.27
2023-05-13T21:08:01.621Z,21.65
2023-05-13T21:10:28.889Z,21.13
2023-05-13T21:12:56.133Z,22.05
2023-05-13T21:15:23.442Z,22.70
2023-05-13T21:17:50.776Z,22.23
2023-05-13T21:20:18.197Z,20.33
2023-05-13T21:22:45.398Z,20.63
2023-05-13T21:25:13.265Z,22.13
2023-05-13T21:27:40.589Z,20.53
2023-05-13T21:30:08.387Z,23.38
2023-05-13T21:32:35.769Z,24.90
2023-05-13T21:35:03.196Z,26.48
2023-05-13T21:37:30.496Z,24.98
2023-05-13T21:39:57.807Z,22.33
2023-05-13T21:42:25.054Z,18.50
2023-05-13T21:44:52.422Z,21.55
2023-05-13T21:47:19.665Z,19.17
2023-05-13T21:49:47.107Z,18.55
2023-05-13T21:52:14.313Z,19.10
2023-05-13T21:54:41.612Z,20.33
2023-05-13T21:57:09.167Z,21.60
2023-05-13T21:59:36.510Z,22.92
2023-05-13T22:02:03.780Z,19.83
2023-05-13T22:04:31.133Z,23.00
2023-05-13T22:06:58.313Z,24.83
2023-05-13T22:09:25.581Z,22.17
2023-05-13T22:11:52.841Z,23.90
2023-05-13T22:14:20.158Z,22.27
2023-05-13T22:16:54.559Z,20.83
2023-05-13T22:19:29.272Z,20.60
2023-05-13T22:21:56.486Z,24.20
2023-05-13T22:24:23.734Z,26.10
2023-05-13T22:26:51.131Z,27.55
2023-05-13T22:29:18.503Z,25.43
2023-05-13T22:31:45.803Z,21.38
2023-05-13T22:34:13.174Z,24.58
2023-05-13T22:36:43.187Z,24.27
2023-05-13T22:39:12.357Z,27.08
2023-05-13T22:41:39.559Z,22.80
2023-05-13T22:44:06.839Z,22.40
2023-05-13T22:46:34.083Z,25.50
2023-05-13T22:49:01.489Z,22.58
2023-05-13T22:51:28.652Z,23.30
2023-05-13T22:53:55.951Z,21.17
2023-05-13T22:56:23.256Z,21.75
2023-05-13T22:58:50.962Z,23.48
2023-05-13T23:01:18.283Z,22.75
2023-05-13T23:03:45.606Z,23.13
2023-05-13T23:06:13.534Z,20.83
2023-05-13T23:08:40.952Z,22.83
2023-05-13T23:11:08.122Z,20.52
2023-05-13T23:13:35.364Z,22.88
2023-05-13T23:16:02.639Z,23.60
2023-05-13T23:18:30.165Z,19.80
2023-05-13T23:20:57.417Z,20.90
2023-05-13T23:23:24.709Z,26.02
2023-05-13T23:25:51.977Z,20.02
2023-05-13T23:28:19.255Z,21.70
2023-05-13T23:30:47.724Z,19.87
2023-05-13T23:33:15.057Z,25.08
2023-05-13T23:35:42.221Z,21.45
2023-05-13T23:38:09.811Z,21.77
2023-05-13T23:40:37.028Z,23.73
2023-05-13T23:43:04.349Z,22.37
2023-05-13T23:45:31.666Z,23.70
2023-05-13T23:47:59.011Z,22.05
2023-05-13T23:50:26.397Z,21.70
2023-05-13T23:52:53.755Z,22.98
2023-05-13T23:55:21.319Z,22.30
2023-05-13T23:57:48.800Z,21.15
